Time;durP1;ratioP1;P1;durP2;ratioP2;P2;SDS_P1;SDS_P2;PMS_P1;PMS_P2;Temp;Humidity;BMP_temperature;BMP_pressure;BME280_temperature;BME280_humidity;BME280_pressure;Samples;Min_cycle;Max_cycle;Signal;HPM_P1;HPM_P2
2022/10/03 00:00:33;;;;;;;13.02;3.58;;;10.00;99.90;;;;;;5000555;28;90289;-30
2022/10/03 00:03:23;;;;;;;6.95;2.95;;;10.00;99.90;;;;;;5001173;28;89512;-31
2022/10/03 00:06:05;;;;;;;10.13;3.78;;;10.00;99.90;;;;;;5000897;28;88422;-32
2022/10/03 00:08:42;;;;;;;8.45;3.17;;;10.00;99.90;;;;;;5000457;28;90193;-34
2022/10/03 00:11:19;;;;;;;9.05;2.45;;;9.90;99.90;;;;;;5000105;28;89298;-29
2022/10/03 00:14:01;;;;;;;12.30;3.15;;;9.90;99.90;;;;;;5000997;28;89845;-32
2022/10/03 00:16:36;;;;;;;9.98;3.17;;;9.90;99.90;;;;;;5000278;28;88477;-29
2022/10/03 00:19:29;;;;;;;15.02;2.90;;;9.90;99.90;;;;;;5000249;28;90347;-32
2022/10/03 00:22:17;;;;;;;12.02;4.18;;;9.90;99.90;;;;;;5000522;28;89316;-30
2022/10/03 00:25:05;;;;;;;17.30;4.22;;;9.90;99.90;;;;;;5000264;28;89958;-30
2022/10/03 00:27:35;;;;;;;11.35;3.75;;;9.90;99.90;;;;;;5000849;28;88052;-32
2022/10/03 00:30:19;;;;;;;7.35;3.60;;;9.90;99.90;;;;;;4993464;28;90208;-33
2022/10/03 00:33:15;;;;;;;11.07;3.10;;;9.90;99.90;;;;;;5000691;28;89934;-31
2022/10/03 00:35:58;;;;;;;10.90;3.58;;;9.90;99.90;;;;;;5001253;28;90432;-32
2022/10/03 00:38:53;;;;;;;18.90;4.22;;;9.90;99.90;;;;;;4999922;28;88640;-30
2022/10/03 00:41:34;;;;;;;11.68;3.67;;;9.90;99.90;;;;;;5000509;28;90460;-31
2022/10/03 00:44:36;;;;;;;14.65;3.47;;;9.90;99.90;;;;;;4999786;28;90572;-35
2022/10/03 00:47:20;;;;;;;7.75;3.53;;;9.90;99.90;;;;;;4999813;28;90387;-29
2022/10/03 00:50:05;;;;;;;5.80;3.75;;;9.90;99.90;;;;;;5037956;22;88995;-31
2022/10/03 00:52:57;;;;;;;8.35;2.30;;;9.90;99.90;;;;;;5020361;28;90188;-31
2022/10/03 00:55:38;;;;;;;7.40;2.97;;;9.90;99.90;;;;;;5019746;28;89849;-31
2022/10/03 00:58:38;;;;;;;15.05;3.45;;;9.80;99.90;;;;;;5019987;28;89330;-31
2022/10/03 01:01:26;;;;;;;12.13;2.95;;;9.80;99.90;;;;;;5020569;28;88954;-32
2022/10/03 01:04:06;;;;;;;13.05;3.40;;;9.80;99.90;;;;;;5020424;28;90288;-30
2022/10/03 01:07:04;;;;;;;5.65;2.75;;;9.80;99.90;;;;;;5020752;28;90411;-29
2022/10/03 01:09:49;;;;;;;12.55;3.72;;;9.80;99.90;;;;;;5019827;28;89336;-32
2022/10/03 01:12:48;;;;;;;11.43;3.90;;;9.80;99.90;;;;;;5019559;28;90585;-30
2022/10/03 01:15:29;;;;;;;7.32;3.53;;;9.80;99.90;;;;;;5020054;28;90545;-33
2022/10/03 01:18:36;;;;;;;12.13;3.15;;;9.80;99.90;;;;;;5020588;28;89467;-32
2022/10/03 01:21:10;;;;;;;5.57;2.92;;;9.80;99.90;;;;;;5019566;27;89640;-33
2022/10/03 01:24:00;;;;;;;9.95;2.80;;;9.80;99.90;;;;;;5020272;28;88728;-32
2022/10/03 01:26:51;;;;;;;10.85;3.50;;;9.80;99.90;;;;;;5005437;28;90981;-31
2022/10/03 01:32:44;;;;;;;13.75;2.83;;;9.80;99.90;;;;;;5010490;28;90251;-32
2022/10/03 01:35:28;;;;;;;11.90;4.70;;;9.80;99.90;;;;;;5019314;28;89030;-29
2022/10/03 01:38:31;;;;;;;3.65;2.00;;;9.90;99.90;;;;;;5020151;28;89999;-33
2022/10/03 01:41:05;;;;;;;6.75;3.20;;;9.90;99.90;;;;;;5019151;28;89805;-32
2022/10/03 01:43:43;;;;;;;11.85;4.32;;;9.90;99.90;;;;;;5019525;28;90862;-31
2022/10/03 01:46:20;;;;;;;8.93;3.60;;;10.00;99.90;;;;;;5019886;28;89940;-31
2022/10/03 01:49:03;;;;;;;7.80;2.85;;;10.00;99.90;;;;;;5019246;28;89091;-31
2022/10/03 01:52:07;;;;;;;4.43;2.30;;;10.00;99.90;;;;;;5019121;28;89817;-31
2022/10/03 01:54:38;;;;;;;8.07;2.17;;;10.10;99.90;;;;;;4987302;28;90275;-31
2022/10/03 01:57:25;;;;;;;11.60;3.25;;;10.10;99.90;;;;;;5019611;28;89236;-31
2022/10/03 02:00:07;;;;;;;3.28;2.42;;;10.10;99.90;;;;;;5020166;28;89123;-30
2022/10/03 02:02:35;;;;;;;4.45;2.40;;;10.10;99.90;;;;;;5018979;28;90463;-32
2022/10/03 02:05:23;;;;;;;8.25;2.72;;;10.10;99.90;;;;;;5019160;28;90437;-31
2022/10/03 02:08:16;;;;;;;16.70;3.03;;;10.20;99.90;;;;;;5019008;28;90321;-32
2022/10/03 02:11:02;;;;;;;17.45;3.50;;;10.20;99.90;;;;;;5018744;28;91441;-30
2022/10/03 02:13:47;;;;;;;14.68;4.22;;;10.20;99.90;;;;;;5018750;28;89906;-30
2022/10/03 02:16:31;;;;;;;7.50;3.08;;;10.30;99.90;;;;;;5019480;28;89832;-33
2022/10/03 02:19:04;;;;;;;7.32;2.22;;;10.30;99.90;;;;;;5018772;28;88823;-32
2022/10/03 02:21:32;;;;;;;5.63;2.08;;;10.30;99.90;;;;;;5019158;28;90958;-31
2022/10/03 02:24:13;;;;;;;11.13;3.03;;;10.30;99.90;;;;;;5000604;28;89868;-32
2022/10/03 02:27:03;;;;;;;13.45;2.75;;;10.30;99.90;;;;;;5020182;28;90088;-32
2022/10/03 02:29:47;;;;;;;8.68;2.63;;;10.30;99.90;;;;;;5018575;28;89225;-34
2022/10/03 02:32:49;;;;;;;6.18;2.47;;;10.30;99.90;;;;;;5018443;27;90278;-30
2022/10/03 02:35:24;;;;;;;7.22;2.60;;;10.30;99.90;;;;;;5021551;28;90576;-31
2022/10/03 02:38:28;;;;;;;9.57;2.83;;;10.20;99.90;;;;;;5022854;28;92405;-30
2022/10/03 02:41:31;;;;;;;7.32;2.38;;;10.20;99.90;;;;;;4939986;28;89254;-30
2022/10/03 02:44:34;;;;;;;12.25;3.47;;;10.20;99.90;;;;;;4940456;28;90391;-32
2022/10/03 02:47:31;;;;;;;7.63;2.58;;;10.10;99.90;;;;;;5019155;28;89086;-31
2022/10/03 02:50:27;;;;;;;13.27;2.58;;;10.10;99.90;;;;;;5021269;28;89459;-32
2022/10/03 02:53:29;;;;;;;6.32;2.58;;;10.00;99.90;;;;;;5022364;28;89100;-33
2022/10/03 02:56:36;;;;;;;15.75;3.03;;;10.00;99.90;;;;;;5022296;28;90407;-32
2022/10/03 02:59:33;;;;;;;11.77;3.65;;;9.90;99.90;;;;;;4939724;28;90656;-31
2022/10/03 03:02:11;;;;;;;7.68;2.90;;;9.80;99.90;;;;;;4940133;28;89244;-31
2022/10/03 03:04:48;;;;;;;10.00;2.63;;;9.70;99.90;;;;;;5001053;28;90296;-31
2022/10/03 03:07:28;;;;;;;5.32;2.53;;;9.70;99.90;;;;;;5022066;28;89963;-29
2022/10/03 03:10:05;;;;;;;12.25;3.40;;;9.70;99.90;;;;;;5021647;28;89729;-29
2022/10/03 03:12:59;;;;;;;6.05;2.80;;;9.60;99.90;;;;;;5022051;28;90018;-34
2022/10/03 03:16:02;;;;;;;6.88;2.78;;;9.60;99.90;;;;;;5021816;28;88907;-33
2022/10/03 03:18:40;;;;;;;14.88;4.05;;;9.60;99.90;;;;;;5020826;28;90757;-30
2022/10/03 03:21:17;;;;;;;8.85;3.50;;;9.50;99.90;;;;;;5021645;28;89656;-29
2022/10/03 03:23:53;;;;;;;7.57;3.70;;;9.50;99.90;;;;;;5021552;28;89626;-34
2022/10/03 03:26:57;;;;;;;5.50;2.63;;;9.50;99.90;;;;;;5022057;28;88101;-31
2022/10/03 03:29:44;;;;;;;10.05;2.78;;;9.50;99.90;;;;;;5007953;28;89615;-33
2022/10/03 03:32:30;;;;;;;9.57;3.45;;;9.50;99.90;;;;;;5019938;28;90776;-29
2022/10/03 03:35:06;;;;;;;7.90;2.08;;;9.60;99.90;;;;;;5011302;28;90538;-32
2022/10/03 03:37:54;;;;;;;9.35;2.95;;;9.60;99.90;;;;;;5022017;28;89368;-31
2022/10/03 03:40:37;;;;;;;6.07;2.78;;;9.60;99.90;;;;;;5020891;28;90317;-31
2022/10/03 03:43:16;;;;;;;6.10;2.58;;;9.70;99.90;;;;;;5021406;28;89920;-31
2022/10/03 03:46:05;;;;;;;15.55;3.35;;;9.70;99.90;;;;;;5020425;28;89472;-30
2022/10/03 03:49:05;;;;;;;9.82;2.65;;;9.70;99.90;;;;;;5020762;28;88879;-32
2022/10/03 03:51:33;;;;;;;9.68;2.10;;;9.70;99.90;;;;;;5020808;28;90771;-30
2022/10/03 03:54:13;;;;;;;;;;;9.70;99.90;;;;;;5021507;28;88849;-32
2022/10/03 03:56:53;;;;;;;8.68;2.30;;;9.70;99.90;;;;;;5022047;28;89664;-30
2022/10/03 03:59:52;;;;;;;14.60;2.88;;;9.70;99.90;;;;;;5020707;28;88754;-33
2022/10/03 04:02:31;;;;;;;5.43;2.58;;;9.80;99.90;;;;;;5003291;28;90160;-33
2022/10/03 04:05:07;;;;;;;22.48;3.13;;;9.80;99.90;;;;;;5021144;28;91037;-30
2022/10/03 04:07:51;;;;;;;9.48;2.75;;;9.90;99.90;;;;;;5020921;28;89791;-31
2022/10/03 04:10:27;;;;;;;7.75;2.95;;;9.90;99.90;;;;;;5021435;28;88939;-33
2022/10/03 04:13:01;;;;;;;8.15;2.55;;;9.90;99.90;;;;;;5020427;28;90546;-33
2022/10/03 04:15:54;;;;;;;8.32;2.63;;;9.90;99.90;;;;;;5005841;28;89677;-31
2022/10/03 04:18:58;;;;;;;4.75;2.42;;;9.90;99.90;;;;;;5014131;28;89705;-31
2022/10/03 04:21:59;;;;;;;5.38;2.42;;;10.00;99.90;;;;;;5020933;28;89484;-32
2022/10/03 04:25:14;;;;;;;8.65;3.10;;;10.00;99.90;;;;;;5002549;28;90855;-30
2022/10/03 04:27:46;;;;;;;16.35;3.15;;;9.90;99.90;;;;;;5017599;28;89507;-30
2022/10/03 04:30:19;;;;;;;4.70;1.55;;;9.90;99.90;;;;;;5020754;28;90104;-35
2022/10/03 04:33:15;;;;;;;9.95;2.38;;;9.90;99.90;;;;;;5021039;28;89482;-40
2022/10/03 04:36:11;;;;;;;10.20;2.38;;;10.00;99.90;;;;;;5020868;28;90916;-30
2022/10/03 04:39:09;;;;;;;18.02;3.00;;;10.00;99.90;;;;;;5020868;28;90347;-31
2022/10/03 04:41:56;;;;;;;16.70;5.80;;;10.00;99.90;;;;;;5020899;28;90381;-30
2022/10/03 04:44:46;;;;;;;15.37;2.83;;;10.00;99.90;;;;;;5021006;28;89777;-31
2022/10/03 04:47:34;;;;;;;11.18;2.53;;;10.00;99.90;;;;;;5020584;28;90302;-32
2022/10/03 04:50:31;;;;;;;8.38;3.85;;;10.00;99.90;;;;;;5020332;28;89774;-29
2022/10/03 04:53:27;;;;;;;12.25;3.22;;;10.00;99.90;;;;;;5020227;28;89774;-31
2022/10/03 04:56:21;;;;;;;7.60;1.88;;;10.00;99.90;;;;;;5019630;27;89638;-32
2022/10/03 04:59:04;;;;;;;6.38;2.53;;;10.00;99.90;;;;;;5020066;28;90140;-33
2022/10/03 05:01:41;;;;;;;4.53;2.38;;;10.00;99.90;;;;;;5019457;28;90604;-31
2022/10/03 05:04:41;;;;;;;11.60;2.85;;;10.00;99.90;;;;;;5019902;28;89165;-31
2022/10/03 05:07:15;;;;;;;6.63;2.13;;;10.00;99.90;;;;;;5020570;28;90020;-31
2022/10/03 05:09:43;;;;;;;5.45;2.50;;;10.00;99.90;;;;;;5020023;28;89216;-31
2022/10/03 05:12:13;;;;;;;;;;;9.90;99.90;;;;;;5020881;28;90790;-31
2022/10/03 05:15:02;;;;;;;7.35;2.70;;;9.90;99.90;;;;;;5001540;28;89265;-32
2022/10/03 05:18:10;;;;;;;7.25;2.70;;;9.80;99.90;;;;;;4990598;28;89988;-30
2022/10/03 05:21:07;;;;;;;9.63;2.60;;;9.80;99.90;;;;;;4990806;28;90367;-33
2022/10/03 05:23:54;;;;;;;10.38;2.72;;;9.80;99.90;;;;;;4999241;28;90657;-33
2022/10/03 05:26:38;;;;;;;4.53;2.42;;;9.70;99.90;;;;;;4999889;28;90480;-32
2022/10/03 05:29:14;;;;;;;12.15;3.08;;;9.70;99.90;;;;;;4999722;28;88570;-32
2022/10/03 05:32:04;;;;;;;11.55;2.83;;;9.70;99.90;;;;;;4998206;28;91937;-34
2022/10/03 05:34:45;;;;;;;7.38;2.97;;;9.60;99.90;;;;;;4987278;28;90115;-30
2022/10/03 05:37:17;;;;;;;9.77;3.10;;;9.50;99.90;;;;;;4999114;28;89541;-33
2022/10/03 05:40:18;;;;;;;8.55;2.22;;;9.50;99.90;;;;;;5003301;28;89155;-32
2022/10/03 05:43:02;;;;;;;4.72;1.33;;;9.50;99.90;;;;;;4936824;28;90271;-32
2022/10/03 05:45:42;;;;;;;8.35;2.70;;;9.50;99.90;;;;;;5011903;28;91381;-31
2022/10/03 05:48:13;;;;;;;6.85;2.20;;;9.50;99.90;;;;;;5019633;28;89378;-30
2022/10/03 05:51:12;;;;;;;6.55;2.60;;;9.60;99.90;;;;;;5018810;28;88836;-30
2022/10/03 05:54:04;;;;;;;8.80;3.05;;;9.50;99.90;;;;;;5020250;28;90429;-31
2022/10/03 05:56:50;;;;;;;6.43;2.97;;;9.50;99.90;;;;;;5018685;28;90338;-33
2022/10/03 05:59:25;;;;;;;5.60;2.63;;;9.50;99.90;;;;;;5018764;28;89424;-32
2022/10/03 06:02:15;;;;;;;7.35;2.40;;;9.40;99.90;;;;;;5020193;28;89312;-30
2022/10/03 06:05:08;;;;;;;3.70;2.55;;;9.40;99.90;;;;;;5019315;28;89128;-31
2022/10/03 06:08:19;;;;;;;11.52;2.95;;;9.40;99.90;;;;;;5018485;27;89947;-31
2022/10/03 06:10:57;;;;;;;9.45;2.92;;;9.40;99.90;;;;;;5019432;28;89608;-32
2022/10/03 06:13:44;;;;;;;7.78;2.88;;;9.40;99.90;;;;;;5019139;28;87935;-31
2022/10/03 06:16:35;;;;;;;5.47;1.58;;;9.40;99.90;;;;;;5008044;28;90520;-32
2022/10/03 06:19:07;;;;;;;2.92;1.77;;;9.40;99.90;;;;;;5018041;28;91122;-33
2022/10/03 06:22:10;;;;;;;8.90;2.67;;;9.40;99.90;;;;;;5018378;28;90251;-34
2022/10/03 06:25:15;;;;;;;3.83;1.67;;;9.40;99.90;;;;;;5019714;28;88833;-30
2022/10/03 06:28:13;;;;;;;7.95;2.63;;;9.50;99.90;;;;;;5014867;28;90689;-33
2022/10/03 06:30:52;;;;;;;6.32;2.72;;;9.50;99.90;;;;;;4967642;28;90137;-31
2022/10/03 06:33:56;;;;;;;2.20;1.83;;;9.60;99.90;;;;;;4997037;28;89715;-31
2022/10/03 06:36:47;;;;;;;3.85;2.13;;;9.60;99.90;;;;;;4986947;28;88669;-30
2022/10/03 06:39:50;;;;;;;7.35;2.35;;;9.70;99.90;;;;;;4992807;28;90647;-32
2022/10/03 06:42:25;;;;;;;7.50;2.97;;;9.80;99.90;;;;;;4996520;28;89327;-32
2022/10/03 06:45:11;;;;;;;10.02;2.00;;;9.80;99.90;;;;;;5016410;28;90786;-32
2022/10/03 06:47:48;;;;;;;6.80;2.45;;;9.90;99.90;;;;;;5016532;28;89870;-32
2022/10/03 06:50:17;;;;;;;8.13;2.90;;;9.90;99.90;;;;;;5014980;28;90611;-30
2022/10/03 06:53:27;;;;;;;4.88;2.40;;;10.00;99.90;;;;;;4997787;28;89847;-32
2022/10/03 06:56:18;;;;;;;8.20;3.25;;;10.00;99.90;;;;;;5016219;28;90528;-33
2022/10/03 06:59:22;;;;;;;11.38;2.38;;;10.00;99.90;;;;;;5017149;28;90014;-30
2022/10/03 07:02:05;;;;;;;11.68;2.95;;;10.00;99.90;;;;;;5016535;28;89943;-31
2022/10/03 07:04:49;;;;;;;8.38;2.40;;;10.10;99.90;;;;;;5015999;28;90561;-30
2022/10/03 07:08:06;;;;;;;5.00;2.80;;;10.20;99.90;;;;;;5015521;28;90195;-30
2022/10/03 07:10:59;;;;;;;8.75;2.70;;;10.20;99.90;;;;;;4963924;28;89919;-29
2022/10/03 07:14:07;;;;;;;11.63;2.67;;;10.30;99.90;;;;;;5016736;28;90026;-33
2022/10/03 07:17:06;;;;;;;5.25;2.80;;;10.40;99.90;;;;;;5014975;28;90356;-34
2022/10/03 07:20:22;;;;;;;16.55;3.15;;;10.50;99.90;;;;;;4997952;28;89518;-31
2022/10/03 07:23:26;;;;;;;8.50;3.20;;;10.60;99.90;;;;;;5019810;28;88380;-30
2022/10/03 07:26:22;;;;;;;13.10;3.30;;;10.80;99.90;;;;;;5019817;28;90251;-30
2022/10/03 07:29:17;;;;;;;3.50;2.17;;;10.90;99.90;;;;;;5019715;28;89566;-31
2022/10/03 07:31:57;;;;;;;8.38;3.08;;;11.00;99.90;;;;;;4981533;28;90148;-32
2022/10/03 07:34:42;;;;;;;8.07;2.75;;;11.10;99.90;;;;;;5019240;28;88797;-31
2022/10/03 07:40:34;;;;;;;6.72;2.75;;;11.40;99.90;;;;;;5018161;28;89882;-31
2022/10/03 07:43:02;;;;;;;5.67;2.80;;;11.50;99.90;;;;;;5019326;28;89750;-30
2022/10/03 07:45:40;;;;;;;3.65;2.05;;;11.60;99.90;;;;;;5018713;28;89359;-30
2022/10/03 07:48:33;;;;;;;10.17;2.30;;;11.70;99.90;;;;;;5018982;28;90378;-33
2022/10/03 07:51:04;;;;;;;9.38;2.22;;;11.90;99.90;;;;;;5019272;28;89829;-33
2022/10/03 07:53:51;;;;;;;10.35;3.13;;;12.00;99.90;;;;;;5018283;28;89400;-34
2022/10/03 07:56:41;;;;;;;9.40;2.90;;;12.10;99.90;;;;;;5020002;28;88372;-30
2022/10/03 07:59:31;;;;;;;5.25;2.03;;;12.20;99.90;;;;;;4980503;28;90481;-32
2022/10/03 08:02:28;;;;;;;4.28;2.10;;;12.30;99.90;;;;;;5018807;28;89629;-32
2022/10/03 08:05:18;;;;;;;3.08;2.30;;;12.50;99.90;;;;;;5018492;28;89862;-30
2022/10/03 08:08:32;;;;;;;9.10;2.42;;;12.60;99.90;;;;;;5019186;28;88736;-31
2022/10/03 08:11:48;;;;;;;10.90;2.92;;;12.70;99.90;;;;;;5018487;28;90197;-31
2022/10/03 08:14:24;;;;;;;3.28;1.83;;;12.90;99.90;;;;;;4982374;28;91325;-33
2022/10/03 08:17:35;;;;;;;10.52;2.15;;;13.10;99.90;;;;;;5018904;28;91019;-30
2022/10/03 08:20:22;;;;;;;2.92;1.80;;;13.20;99.90;;;;;;5018754;28;89674;-29
2022/10/03 08:22:52;;;;;;;4.22;2.30;;;13.40;99.90;;;;;;5018753;28;90285;-31
2022/10/03 08:25:59;;;;;;;3.22;2.35;;;13.50;99.90;;;;;;5018535;28;89682;-31
2022/10/03 08:29:07;;;;;;;16.63;4.30;;;13.70;99.90;;;;;;4972547;28;89537;-30
2022/10/03 08:31:57;;;;;;;8.43;2.35;;;13.70;99.90;;;;;;5017966;28;89424;-31
2022/10/03 08:34:41;;;;;;;3.80;2.65;;;13.80;99.90;;;;;;5018209;28;90133;-33
2022/10/03 08:37:26;;;;;;;3.58;1.73;;;13.90;99.90;;;;;;5018570;28;89421;-31
2022/10/03 08:39:55;;;;;;;8.80;2.03;;;14.10;99.90;;;;;;5019282;28;88561;-32
2022/10/03 08:43:18;;;;;;;9.80;2.25;;;14.10;99.90;;;;;;5017681;28;90382;-31
2022/10/03 08:46:09;;;;;;;7.63;2.45;;;14.30;99.90;;;;;;4935868;28;90902;-31
2022/10/03 08:49:01;;;;;;;7.15;1.77;;;14.30;99.90;;;;;;4935923;28;90163;-31
2022/10/03 08:51:47;;;;;;;6.75;1.90;;;14.40;99.90;;;;;;5013057;28;89773;-31
2022/10/03 08:54:43;;;;;;;10.15;2.20;;;14.50;99.90;;;;;;4975819;28;89909;-32
2022/10/03 08:57:19;;;;;;;3.53;1.73;;;14.60;99.90;;;;;;5017976;28;89187;-32
2022/10/03 09:00:12;;;;;;;10.90;2.75;;;14.70;99.90;;;;;;5017516;28;89907;-32
2022/10/03 09:02:55;;;;;;;6.75;1.75;;;14.70;99.90;;;;;;5018745;28;89564;-33
2022/10/03 09:05:58;;;;;;;8.82;2.00;;;14.90;99.90;;;;;;5018005;28;88889;-34
2022/10/03 09:08:56;;;;;;;3.75;1.85;;;15.00;99.90;;;;;;5017803;28;90207;-30
2022/10/03 09:11:39;;;;;;;7.57;2.30;;;15.10;99.90;;;;;;5017191;28;90926;-33
2022/10/03 09:14:20;;;;;;;5.68;2.03;;;15.20;99.90;;;;;;5017842;28;90121;-33
2022/10/03 09:17:18;;;;;;;9.10;2.25;;;15.20;99.90;;;;;;5017699;28;88571;-32
2022/10/03 09:20:09;;;;;;;6.72;1.88;;;15.30;99.90;;;;;;4975592;28;91766;-33
2022/10/03 09:22:55;;;;;;;8.10;1.85;;;15.40;99.90;;;;;;5011415;28;90303;-30
2022/10/03 09:25:21;;;;;;;5.95;2.08;;;15.60;99.90;;;;;;5012415;28;89904;-33
2022/10/03 09:28:02;;;;;;;4.78;1.70;;;15.60;99.90;;;;;;4999282;28;89314;-33
2022/10/03 09:30:56;;;;;;;2.42;0.90;;;15.70;99.90;;;;;;5016901;28;90666;-31
2022/10/03 09:33:43;;;;;;;6.03;1.40;;;15.70;99.90;;;;;;5017995;28;89523;-31
2022/10/03 09:36:14;;;;;;;3.35;1.23;;;15.80;99.90;;;;;;5017515;28;89217;-31
2022/10/03 09:39:08;;;;;;;10.02;1.88;;;15.90;99.90;;;;;;5017601;28;88056;-32
2022/10/03 09:42:11;;;;;;;5.15;1.80;;;15.90;99.90;;;;;;5012978;28;90413;-32
2022/10/03 09:45:11;;;;;;;4.00;1.23;;;16.00;99.90;;;;;;5017135;28;88802;-31
2022/10/03 09:48:18;;;;;;;7.47;1.63;;;16.00;99.90;;;;;;5017001;28;89908;-33
2022/10/03 09:50:50;;;;;;;3.38;1.60;;;16.10;99.90;;;;;;5016833;28;88790;-33
2022/10/03 09:53:31;;;;;;;2.47;1.17;;;16.20;99.90;;;;;;5017411;28;89689;-30
2022/10/03 09:56:24;;;;;;;3.53;1.95;;;16.30;99.90;;;;;;5017539;28;89857;-33
2022/10/03 09:59:10;;;;;;;5.60;1.85;;;16.40;99.90;;;;;;5017177;28;90289;-31
2022/10/03 10:01:52;;;;;;;8.05;1.67;;;16.40;99.90;;;;;;5017015;28;88578;-31
2022/10/03 10:04:36;;;;;;;4.68;1.38;;;16.40;99.90;;;;;;5016785;28;90353;-34
2022/10/03 10:07:41;;;;;;;8.20;2.10;;;16.50;99.90;;;;;;5016797;28;91509;-30
2022/10/03 10:10:47;;;;;;;3.60;1.40;;;16.50;99.90;;;;;;5016323;28;90270;-34
2022/10/03 10:13:37;;;;;;;4.78;1.83;;;16.60;99.90;;;;;;5017064;28;89417;-31
2022/10/03 10:16:08;;;;;;;5.35;2.10;;;16.50;99.90;;;;;;5017513;28;90290;-31
2022/10/03 10:19:12;;;;;;;2.50;1.08;;;16.50;99.90;;;;;;5002001;28;89771;-32
2022/10/03 10:22:17;;;;;;;5.75;1.48;;;16.60;99.90;;;;;;5016761;28;90682;-31
2022/10/03 10:25:23;;;;;;;2.25;1.08;;;16.50;99.90;;;;;;4974675;28;88567;-31
2022/10/03 10:28:17;;;;;;;13.35;2.60;;;16.40;99.90;;;;;;5016570;28;89512;-30
2022/10/03 10:31:10;;;;;;;8.45;2.53;;;16.40;99.90;;;;;;5016516;28;89857;-32
2022/10/03 10:33:54;;;;;;;8.25;1.70;;;16.40;99.90;;;;;;5015710;28;90710;-31
2022/10/03 10:36:57;;;;;;;5.18;1.13;;;16.50;99.90;;;;;;5016629;28;90092;-33
2022/10/03 10:39:41;;;;;;;2.63;1.40;;;16.50;99.90;;;;;;5016096;28;91515;-32
2022/10/03 10:42:31;;;;;;;7.82;1.38;;;16.60;99.90;;;;;;5016233;28;89720;-31
2022/10/03 10:45:31;;;;;;;8.48;2.47;;;16.60;99.90;;;;;;5016238;28;89394;-30
2022/10/03 10:48:16;;;;;;;4.00;1.40;;;16.70;99.90;;;;;;4997938;28;88445;-33
2022/10/03 10:51:03;;;;;;;4.32;1.23;;;16.80;99.90;;;;;;5016604;28;90343;-32
2022/10/03 10:53:51;;;;;;;2.83;1.50;;;16.70;99.90;;;;;;5015965;27;89834;-33
2022/10/03 10:56:35;;;;;;;4.13;1.40;;;16.70;99.90;;;;;;5019037;28;89579;-33
2022/10/03 10:59:44;;;;;;;5.00;1.50;;;16.70;99.90;;;;;;5020265;28;89199;-32
2022/10/03 11:02:52;;;;;;;11.90;3.15;;;16.50;99.90;;;;;;5020002;28;90032;-30
2022/10/03 11:05:40;;;;;;;;;;;16.40;99.90;;;;;;5018697;28;91089;-31
2022/10/03 11:08:37;;;;;;;1.85;1.05;;;16.30;99.90;;;;;;4998194;28;89818;-31
2022/10/03 11:11:42;;;;;;;6.70;1.73;;;16.30;99.90;;;;;;4977417;28;89542;-30
2022/10/03 11:14:36;;;;;;;2.28;1.60;;;16.30;99.90;;;;;;4951908;28;90377;-32
2022/10/03 11:17:26;;;;;;;5.72;1.17;;;16.50;99.90;;;;;;5018173;28;89989;-32
2022/10/03 11:20:29;;;;;;;7.22;1.08;;;16.60;99.90;;;;;;5001037;28;90004;-30
2022/10/03 11:22:55;;;;;;;3.33;1.27;;;16.60;99.90;;;;;;5020578;28;87752;-34
2022/10/03 11:25:50;;;;;;;2.10;1.80;;;16.60;99.90;;;;;;5000565;28;90108;-32
2022/10/03 11:28:33;;;;;;;4.05;1.85;;;16.60;99.90;;;;;;5019301;28;89232;-31
2022/10/03 11:31:51;;;;;;;2.20;1.23;;;16.50;99.90;;;;;;5019666;28;90231;-31
2022/10/03 11:34:56;;;;;;;2.50;1.38;;;16.50;99.90;;;;;;5018839;28;88868;-34
2022/10/03 11:37:27;;;;;;;6.32;1.45;;;16.50;99.90;;;;;;5019500;28;91136;-32
2022/10/03 11:40:06;;;;;;;3.85;0.88;;;16.50;99.90;;;;;;5019849;28;90360;-33
2022/10/03 11:42:55;;;;;;;5.90;1.58;;;16.50;99.90;;;;;;5001176;28;89820;-31
2022/10/03 11:45:38;;;;;;;2.88;1.17;;;16.40;99.90;;;;;;5004178;28;88710;-32
2022/10/03 11:48:15;;;;;;;4.97;2.03;;;16.40;99.90;;;;;;5018504;28;90799;-31
2022/10/03 11:50:53;;;;;;;6.95;2.08;;;16.50;99.90;;;;;;5019098;28;89444;-33
2022/10/03 11:53:44;;;;;;;7.10;1.33;;;16.50;99.90;;;;;;5019097;28;88009;-32
2022/10/03 11:56:35;;;;;;;2.97;0.80;;;16.50;99.90;;;;;;4979248;28;89209;-34
2022/10/03 11:59:11;;;;;;;7.80;1.88;;;16.60;99.90;;;;;;5018894;28;90413;-32
2022/10/03 12:02:13;;;;;;;5.47;1.60;;;16.70;99.90;;;;;;5018443;28;90601;-32
2022/10/03 12:05:06;;;;;;;8.05;1.65;;;16.80;99.90;;;;;;5019325;28;90285;-32
2022/10/03 12:11:17;;;;;;;6.50;1.50;;;16.90;99.90;;;;;;4936617;28;90764;-32
2022/10/03 12:14:04;;;;;;;5.20;1.42;;;16.90;99.90;;;;;;4936554;28;88590;-33
2022/10/03 12:17:09;;;;;;;2.20;1.08;;;17.00;99.90;;;;;;5001907;28;89930;-31
2022/10/03 12:20:02;;;;;;;2.58;1.05;;;17.00;99.90;;;;;;5018839;28;89472;-31
2022/10/03 12:22:45;;;;;;;4.40;1.70;;;17.10;99.90;;;;;;4979861;28;90585;-33
2022/10/03 12:25:26;;;;;;;4.90;1.60;;;17.20;99.90;;;;;;5018634;28;89685;-33
2022/10/03 12:28:23;;;;;;;3.50;1.30;;;17.40;99.90;;;;;;5019248;28;90273;-30
2022/10/03 12:31:18;;;;;;;9.57;2.05;;;17.50;99.90;;;;;;5018585;28;90794;-32
2022/10/03 12:33:53;;;;;;;5.63;1.85;;;17.60;99.90;;;;;;5017439;28;90269;-31
2022/10/03 12:36:34;;;;;;;2.17;1.08;;;17.70;99.90;;;;;;5018122;28;89874;-33
2022/10/03 12:39:34;;;;;;;5.05;1.42;;;17.80;99.90;;;;;;5017913;28;89455;-32
2022/10/03 12:42:19;;;;;;;4.82;1.40;;;17.80;99.90;;;;;;5010601;28;89665;-32
2022/10/03 12:45:06;;;;;;;5.07;1.77;;;17.70;99.90;;;;;;5014575;28;90908;-32
2022/10/03 12:47:47;;;;;;;5.13;1.30;;;17.60;99.90;;;;;;5018056;28;90274;-32
2022/10/03 12:50:32;;;;;;;3.70;1.00;;;17.50;99.90;;;;;;5037950;22;90999;-33
2022/10/03 12:53:24;;;;;;;7.50;1.70;;;17.50;99.90;;;;;;4998146;28;87735;-32
2022/10/03 12:56:11;;;;;;;2.83;1.38;;;17.40;99.90;;;;;;4998052;28;90177;-33
2022/10/03 12:58:48;;;;;;;2.67;1.23;;;17.40;99.90;;;;;;4997152;28;90648;-32
2022/10/03 13:01:23;;;;;;;2.70;1.15;;;17.30;99.90;;;;;;4998025;28;90315;-34
2022/10/03 13:03:51;;;;;;;4.55;2.03;;;17.40;99.90;;;;;;4998014;28;88072;-31
2022/10/03 13:06:32;;;;;;;;;;;17.50;99.90;;;;;;4997915;28;90316;-32
2022/10/03 13:09:15;;;;;;;4.03;1.13;;;17.60;99.90;;;;;;4990543;28;89943;-33
2022/10/03 13:11:59;;;;;;;2.50;1.52;;;17.60;99.90;;;;;;4996495;28;89640;-30
2022/10/03 13:14:42;;;;;;;3.78;1.73;;;17.70;99.90;;;;;;4997185;28;89147;-31
2022/10/03 13:17:34;;;;;;;6.15;1.75;;;17.70;99.90;;;;;;4997244;28;90515;-30
2022/10/03 13:20:15;;;;;;;4.30;1.33;;;17.70;99.90;;;;;;4992916;28;89276;-30
2022/10/03 13:23:15;;;;;;;6.38;1.98;;;17.60;99.90;;;;;;4974704;28;90914;-31
2022/10/03 13:26:09;;;;;;;3.38;1.45;;;17.60;99.90;;;;;;4961392;28;90737;-33
2022/10/03 13:28:38;;;;;;;3.13;2.13;;;17.30;99.90;;;;;;4977011;28;90649;-31
2022/10/03 13:31:18;;;;;;;11.60;1.98;;;17.20;99.90;;;;;;4970362;28;90028;-32
2022/10/03 13:33:49;;;;;;;4.53;1.52;;;17.20;99.90;;;;;;4969451;28;89668;-31
2022/10/03 13:36:23;;;;;;;4.60;1.73;;;17.20;99.90;;;;;;4957365;28;90927;-32
2022/10/03 13:39:12;;;;;;;4.68;1.50;;;17.20;99.90;;;;;;4971341;28;89108;-32
2022/10/03 13:41:59;;;;;;;2.70;0.80;;;17.30;99.90;;;;;;4982065;28;89252;-33
2022/10/03 13:44:30;;;;;;;3.90;1.60;;;17.30;99.90;;;;;;4997392;28;89373;-34
2022/10/03 13:47:03;;;;;;;5.40;1.48;;;17.30;99.90;;;;;;4997664;28;89280;-34
2022/10/03 13:49:34;;;;;;;4.70;1.58;;;17.30;99.90;;;;;;4995927;28;90133;-34
2022/10/03 13:52:36;;;;;;;7.72;1.40;;;17.30;99.90;;;;;;4969190;28;91812;-33
2022/10/03 13:55:20;;;;;;;3.33;1.42;;;17.30;99.90;;;;;;4996868;28;92262;-34
2022/10/03 13:58:12;;;;;;;2.50;0.88;;;17.30;99.90;;;;;;4996950;28;88976;-32
2022/10/03 14:00:44;;;;;;;2.33;1.40;;;17.20;99.90;;;;;;4964965;28;90388;-34
2022/10/03 14:03:17;;;;;;;5.93;1.35;;;17.20;99.90;;;;;;4996879;28;89546;-33
2022/10/03 14:06:05;;;;;;;4.22;1.33;;;17.20;99.90;;;;;;4997069;28;91467;-32
2022/10/03 14:08:51;;;;;;;1.45;1.08;;;17.20;99.90;;;;;;4997059;28;89986;-33
2022/10/03 14:11:43;;;;;;;2.75;0.90;;;17.20;99.90;;;;;;4991697;28;89549;-31
2022/10/03 14:14:26;;;;;;;5.82;1.15;;;17.20;99.90;;;;;;4975346;28;89560;-32
2022/10/03 14:17:27;;;;;;;3.65;1.25;;;17.30;99.90;;;;;;4975140;28;89664;-34
2022/10/03 14:20:19;;;;;;;2.13;1.10;;;17.30;99.90;;;;;;4938592;28;90071;-33
2022/10/03 14:23:25;;;;;;;3.83;1.80;;;17.20;99.90;;;;;;4970469;28;90394;-32
2022/10/03 14:26:00;;;;;;;7.07;2.05;;;17.20;99.90;;;;;;4990590;28;89952;-31
2022/10/03 14:28:38;;;;;;;4.13;1.40;;;17.10;99.90;;;;;;4996657;28;89611;-32
2022/10/03 14:31:38;;;;;;;3.70;1.73;;;17.00;99.90;;;;;;4999866;28;89577;-30
2022/10/03 14:34:14;;;;;;;3.65;0.90;;;17.00;99.90;;;;;;4999776;28;91875;-30
2022/10/03 14:36:51;;;;;;;4.20;1.77;;;17.00;99.90;;;;;;4999655;28;90041;-31
2022/10/03 14:39:28;;;;;;;4.57;2.55;;;16.90;99.90;;;;;;5000614;28;89611;-32
2022/10/03 14:41:54;;;;;;;5.63;1.58;;;16.90;99.90;;;;;;5000934;28;90499;-31
2022/10/03 14:44:21;;;;;;;3.33;1.23;;;16.90;99.90;;;;;;4999400;28;90120;-33